createdAt,value
2023-02-14T00:00:07.914Z,100886.06
2023-02-14T00:00:28.564Z,100887.84
2023-02-14T00:00:35.603Z,100889.59
2023-02-14T00:00:42.669Z,100891.34
2023-02-14T00:00:49.759Z,100885.22
2023-02-14T00:01:09.209Z,100886.06
2023-02-14T00:01:16.309Z,100887.81
2023-02-14T00:01:23.458Z,100892.19
2023-02-14T00:01:30.520Z,100893.94
2023-02-14T00:01:37.632Z,100893.06
2023-02-14T00:01:58.509Z,100890.44
2023-02-14T00:02:05.800Z,100893.94
2023-02-14T00:02:12.829Z,100897.47
2023-02-14T00:02:19.897Z,100890.47
2023-02-14T00:02:28.393Z,100891.34
2023-02-14T00:02:42.504Z,100891.31
2023-02-14T00:02:49.688Z,100893.06
2023-02-14T00:02:57.502Z,100886.97
2023-02-14T00:03:13.421Z,100891.34
2023-02-14T00:03:20.525Z,100900.94
2023-02-14T00:03:29.798Z,100888.69
2023-02-14T00:03:38.161Z,100891.31
2023-02-14T00:04:00.797Z,100895.66
2023-02-14T00:04:08.087Z,100889.50
2023-02-14T00:04:16.547Z,100895.66
2023-02-14T00:04:23.774Z,100886.91
2023-02-14T00:04:31.104Z,100889.50
2023-02-14T00:04:42.388Z,100888.69
2023-02-14T00:04:50.578Z,100892.16
2023-02-14T00:05:00.828Z,100887.78
2023-02-14T00:05:08.168Z,100887.78
2023-02-14T00:05:27.626Z,100887.81
2023-02-14T00:05:34.794Z,100887.78
2023-02-14T00:05:41.901Z,100891.28
2023-02-14T00:05:49.564Z,100887.78
2023-02-14T00:06:06.952Z,100880.75
2023-02-14T00:06:15.505Z,100886.88
2023-02-14T00:06:22.629Z,100883.38
2023-02-14T00:06:32.806Z,100888.63
2023-02-14T00:06:39.923Z,100884.28
2023-02-14T00:06:59.277Z,100886.00
2023-02-14T00:07:06.624Z,100886.88
2023-02-14T00:07:13.836Z,100885.16
2023-02-14T00:07:21.912Z,100887.78
2023-02-14T00:07:28.944Z,100885.16
2023-02-14T00:07:47.968Z,100887.81
2023-02-14T00:07:54.986Z,100896.56
2023-02-14T00:08:01.987Z,100886.03
2023-02-14T00:08:09.010Z,100885.16
2023-02-14T00:08:24.151Z,100882.56
2023-02-14T00:08:31.919Z,100887.78
2023-02-14T00:08:41.097Z,100887.81
2023-02-14T00:08:48.199Z,100889.56
2023-02-14T00:09:07.803Z,100891.31
2023-02-14T00:09:16.012Z,100889.59
2023-02-14T00:09:23.469Z,100889.56
2023-02-14T00:09:30.590Z,100886.94
2023-02-14T00:09:38.905Z,100882.53
2023-02-14T00:09:57.938Z,100889.56
2023-02-14T00:10:05.554Z,100887.78
2023-02-14T00:10:12.567Z,100886.94
2023-02-14T00:10:19.828Z,100884.31
2023-02-14T00:10:38.871Z,100888.69
2023-02-14T00:10:46.300Z,100884.28
2023-02-14T00:10:54.608Z,100880.78
2023-02-14T00:11:01.725Z,100879.06
2023-02-14T00:11:09.080Z,100889.59
2023-02-14T00:11:28.393Z,100887.88
2023-02-14T00:11:35.412Z,100886.97
2023-02-14T00:11:42.946Z,100887.81
2023-02-14T00:11:51.684Z,100887.81
2023-02-14T00:11:58.793Z,100889.56
2023-02-14T00:12:07.576Z,100892.19
2023-02-14T00:12:26.625Z,100893.06
2023-02-14T00:12:33.672Z,100888.69
2023-02-14T00:12:40.736Z,100897.44
2023-02-14T00:12:47.757Z,100886.94
2023-02-14T00:13:07.773Z,100891.38
2023-02-14T00:13:14.821Z,100888.75
2023-02-14T00:13:21.869Z,100893.13
2023-02-14T00:13:28.932Z,100891.38
2023-02-14T00:14:03.125Z,100889.59
2023-02-14T00:14:29.083Z,100893.97
2023-02-14T00:14:54.657Z,100890.47
2023-02-14T00:15:19.784Z,100891.38
2023-02-14T00:15:27.052Z,100888.72
2023-02-14T00:15:34.293Z,100887.84
2023-02-14T00:15:41.443Z,100890.47
2023-02-14T00:15:48.755Z,100892.25
2023-02-14T00:15:56.107Z,100887.84
2023-02-14T00:16:04.680Z,100891.34
2023-02-14T00:16:11.848Z,100888.75
2023-02-14T00:16:18.964Z,100893.09
2023-02-14T00:16:26.168Z,100893.13
2023-02-14T00:16:33.362Z,100894.00
2023-02-14T00:16:41.418Z,100895.75
2023-02-14T00:16:50.055Z,100894.00
2023-02-14T00:16:57.297Z,100888.75
2023-02-14T00:17:04.542Z,100891.38
2023-02-14T00:17:12.065Z,100892.25
2023-02-14T00:17:19.191Z,100893.09
2023-02-14T00:17:26.316Z,100895.72
2023-02-14T00:17:34.763Z,100888.69
2023-02-14T00:17:42.276Z,100890.47
2023-02-14T00:18:03.594Z,100893.09
2023-02-14T00:18:10.968Z,100895.72
2023-02-14T00:18:19.726Z,100898.31
2023-02-14T00:18:47.825Z,100896.56
2023-02-14T00:19:03.791Z,100897.50
2023-02-14T00:19:12.080Z,100896.59
2023-02-14T00:19:20.587Z,100894.81
2023-02-14T00:19:28.088Z,100896.59
2023-02-14T00:19:36.089Z,100888.72
2023-02-14T00:19:44.188Z,100900.94
2023-02-14T00:19:51.240Z,100894.84
2023-02-14T00:19:58.280Z,100899.22
2023-02-14T00:20:06.036Z,100893.97
2023-02-14T00:20:13.139Z,100903.56
2023-02-14T00:20:20.421Z,100897.44
2023-02-14T00:20:28.318Z,100895.69
2023-02-14T00:20:37.065Z,100899.19
2023-02-14T00:20:44.105Z,100903.56
2023-02-14T00:20:51.133Z,100892.19
2023-02-14T00:21:00.169Z,100900.94
2023-02-14T00:21:20.392Z,100900.06
2023-02-14T00:21:27.666Z,100895.69
2023-02-14T00:21:36.186Z,100893.94
2023-02-14T00:21:43.464Z,100893.09
2023-02-14T00:21:50.541Z,100893.09
2023-02-14T00:22:09.676Z,100898.34
2023-02-14T00:22:16.752Z,100903.63
2023-02-14T00:22:23.845Z,100894.88
2023-02-14T00:22:30.934Z,100897.50
2023-02-14T00:22:51.230Z,100901.88
2023-02-14T00:22:58.257Z,100897.50
2023-02-14T00:23:05.344Z,100901.88
2023-02-14T00:23:12.430Z,100903.63
2023-02-14T00:23:31.418Z,100893.09
2023-02-14T00:23:38.515Z,100893.13
2023-02-14T00:23:45.662Z,100902.75
2023-02-14T00:23:52.723Z,100901.88
2023-02-14T00:23:59.854Z,100900.13
2023-02-14T00:24:21.728Z,100900.13
2023-02-14T00:24:28.898Z,100901.88
2023-02-14T00:24:37.133Z,100902.75
2023-02-14T00:24:44.226Z,100901.88
2023-02-14T00:24:51.352Z,100903.63
2023-02-14T00:25:10.653Z,100899.25
2023-02-14T00:25:18.319Z,100895.75
2023-02-14T00:25:25.440Z,100898.38
2023-02-14T00:25:33.973Z,100903.63
2023-02-14T00:25:42.071Z,100903.63
2023-02-14T00:26:01.055Z,100895.75
2023-02-14T00:26:13.289Z,100896.63
2023-02-14T00:26:20.932Z,100895.75
2023-02-14T00:26:27.938Z,100899.25
2023-02-14T00:26:35.079Z,100889.63
2023-02-14T00:26:42.575Z,100901.88
2023-02-14T00:26:50.224Z,100897.50
2023-02-14T00:27:04.326Z,100894.00
2023-02-14T00:27:11.387Z,100901.88
2023-02-14T00:27:31.437Z,100900.13
2023-02-14T00:27:41.819Z,100902.75
2023-02-14T00:27:48.845Z,100897.50
2023-02-14T00:27:55.869Z,100898.38
2023-02-14T00:28:03.702Z,100902.78
2023-02-14T00:28:10.758Z,100895.78
2023-02-14T00:28:30.353Z,100901.91
2023-02-14T00:28:37.630Z,100896.66
2023-02-14T00:28:44.961Z,100901.88
2023-02-14T00:28:52.985Z,100890.50
2023-02-14T00:29:00.562Z,100900.13
2023-02-14T00:29:21.930Z,100899.28
2023-02-14T00:29:31.449Z,100897.50
2023-02-14T00:29:38.506Z,100894.88
2023-02-14T00:29:45.569Z,100894.91
2023-02-14T00:29:54.878Z,100898.41
2023-02-14T00:30:03.274Z,100897.53
2023-02-14T00:30:12.822Z,100898.44
2023-02-14T00:30:20.107Z,100901.03
2023-02-14T00:30:39.360Z,100898.44
2023-02-14T00:30:47.337Z,100896.69
2023-02-14T00:30:56.978Z,100893.19
2023-02-14T00:31:04.497Z,100898.41
2023-02-14T00:31:11.797Z,100897.56
2023-02-14T00:31:27.033Z,100904.53
2023-02-14T00:31:37.323Z,100900.19
2023-02-14T00:31:44.896Z,100899.31
2023-02-14T00:31:52.017Z,100899.31
2023-02-14T00:32:11.320Z,100898.41
2023-02-14T00:32:18.392Z,100900.13
2023-02-14T00:32:25.838Z,100906.28
2023-02-14T00:32:34.881Z,100901.88
2023-02-14T00:32:44.354Z,100898.38
2023-02-14T00:32:51.465Z,100908.88
2023-02-14T00:33:10.534Z,100903.66
2023-02-14T00:33:18.297Z,100897.53
2023-02-14T00:33:25.793Z,100898.41
2023-02-14T00:33:32.869Z,100901.00
2023-02-14T00:33:40.263Z,100900.19
2023-02-14T00:33:54.784Z,100899.31
2023-02-14T00:34:02.221Z,100904.56
2023-02-14T00:34:23.168Z,100900.19
2023-02-14T00:34:30.259Z,100897.56
2023-02-14T00:34:40.821Z,100896.69
2023-02-14T00:34:50.687Z,100902.81
2023-02-14T00:34:57.720Z,100898.44
2023-02-14T00:35:04.984Z,100893.16
2023-02-14T00:35:13.242Z,100898.44
2023-02-14T00:35:21.258Z,100897.53
2023-02-14T00:35:40.530Z,100899.28
2023-02-14T00:35:47.574Z,100896.63
2023-02-14T00:35:55.141Z,100898.38
2023-02-14T00:36:02.975Z,100901.00
2023-02-14T00:36:10.342Z,100901.88
2023-02-14T00:36:26.112Z,100902.75
2023-02-14T00:36:33.428Z,100902.75
2023-02-14T00:36:40.538Z,100905.38
2023-02-14T00:36:56.644Z,100898.38
2023-02-14T00:37:05.519Z,100899.25
2023-02-14T00:37:12.582Z,100895.75
2023-02-14T00:37:26.692Z,100903.63
2023-02-14T00:37:34.413Z,100902.75
2023-02-14T00:37:41.519Z,100902.75
2023-02-14T00:37:50.528Z,100901.88
2023-02-14T00:38:11.628Z,100897.53
2023-02-14T00:38:22.928Z,100911.50
2023-02-14T00:38:30.675Z,100908.00
2023-02-14T00:38:39.748Z,100899.25
2023-02-14T00:38:48.376Z,100903.63
2023-02-14T00:38:56.804Z,100901.00
2023-02-14T00:39:04.653Z,100903.63
2023-02-14T00:39:12.462Z,100901.88
2023-02-14T00:39:27.315Z,100900.13
2023-02-14T00:39:34.510Z,100901.00
2023-02-14T00:39:42.590Z,100899.25
2023-02-14T00:39:56.969Z,100904.53
2023-02-14T00:40:05.851Z,100901.88
2023-02-14T00:40:13.210Z,100902.75
2023-02-14T00:40:20.276Z,100901.88
2023-02-14T00:40:37.510Z,100904.50
2023-02-14T00:40:44.594Z,100907.09
2023-02-14T00:40:51.693Z,100904.50
2023-02-14T00:41:19.277Z,100908.88
2023-02-14T00:41:26.352Z,100907.97
2023-02-14T00:41:33.779Z,100909.72
2023-02-14T00:41:41.900Z,100908.00
2023-02-14T00:41:49.604Z,100909.72
2023-02-14T00:41:57.204Z,100910.59
2023-02-14T00:42:04.421Z,100908.84
2023-02-14T00:42:11.607Z,100905.31
2023-02-14T00:42:31.736Z,100907.97
2023-02-14T00:42:38.833Z,100901.84
2023-02-14T00:42:45.977Z,100900.97
2023-02-14T00:42:54.810Z,100907.94
2023-02-14T00:43:03.103Z,100907.09
2023-02-14T00:43:10.147Z,100912.34
2023-02-14T00:43:29.404Z,100911.47
2023-02-14T00:43:37.531Z,100913.22
2023-02-14T00:43:44.616Z,100910.59
2023-02-14T00:43:52.806Z,100914.09
2023-02-14T00:44:01.309Z,100910.63
2023-02-14T00:44:21.113Z,100908.84
2023-02-14T00:44:28.166Z,100910.63
2023-02-14T00:44:35.309Z,100909.72
2023-02-14T00:44:42.401Z,100907.09
2023-02-14T00:45:01.419Z,100908.84
2023-02-14T00:45:09.944Z,100907.09
2023-02-14T00:45:19.102Z,100911.44
2023-02-14T00:45:26.237Z,100907.09
2023-02-14T00:45:33.316Z,100914.94
2023-02-14T00:45:40.430Z,100919.34
2023-02-14T00:45:59.768Z,100912.34
2023-02-14T00:46:06.929Z,100911.47
2023-02-14T00:46:14.577Z,100915.00
2023-02-14T00:46:22.912Z,100915.03
2023-02-14T00:46:29.951Z,100916.75
2023-02-14T00:46:50.074Z,100915.84
2023-02-14T00:46:57.144Z,100912.34
2023-02-14T00:47:04.251Z,100915.84
2023-02-14T00:47:11.313Z,100914.06
2023-02-14T00:47:32.294Z,100916.69
2023-02-14T00:47:39.366Z,100922.81
2023-02-14T00:47:47.816Z,100914.94
2023-02-14T00:47:54.849Z,100920.22
2023-02-14T00:48:01.899Z,100913.19
2023-02-14T00:48:21.954Z,100918.47
2023-02-14T00:48:28.992Z,100917.59
2023-02-14T00:48:36.066Z,100913.19
2023-02-14T00:48:43.366Z,100914.97
2023-02-14T00:48:51.026Z,100916.69
2023-02-14T00:49:10.323Z,100917.59
2023-02-14T00:49:18.633Z,100914.06
2023-02-14T00:49:25.685Z,100912.31
2023-02-14T00:49:32.817Z,100917.56
2023-02-14T00:49:39.962Z,100917.50
2023-02-14T00:50:02.980Z,100916.66
2023-02-14T00:50:10.629Z,100913.16
2023-02-14T00:50:17.718Z,100910.56
2023-02-14T00:50:24.752Z,100918.44
2023-02-14T00:50:32.007Z,100920.19
2023-02-14T00:50:52.712Z,100916.69
2023-02-14T00:51:00.091Z,100916.69
2023-02-14T00:51:07.744Z,100916.69
2023-02-14T00:51:15.118Z,100914.06
2023-02-14T00:51:22.480Z,100910.56
2023-02-14T00:51:31.846Z,100911.44
2023-02-14T00:51:46.254Z,100914.94
2023-02-14T00:51:53.406Z,100914.94
2023-02-14T00:52:00.528Z,100914.06
2023-02-14T00:52:19.576Z,100912.34
2023-02-14T00:52:26.652Z,100912.31
2023-02-14T00:52:34.788Z,100916.75
2023-02-14T00:52:41.884Z,100920.22
2023-02-14T00:52:57.332Z,100914.94
2023-02-14T00:53:04.502Z,100914.06
2023-02-14T00:53:11.553Z,100910.59
2023-02-14T00:53:30.560Z,100920.19
2023-02-14T00:53:37.865Z,100913.19
2023-02-14T00:53:46.552Z,100914.06
2023-02-14T00:53:54.138Z,100911.44
2023-02-14T00:54:02.241Z,100915.84
2023-02-14T00:54:11.323Z,100909.72
2023-02-14T00:54:30.956Z,100914.94
2023-02-14T00:54:39.706Z,100914.94
2023-02-14T00:54:46.970Z,100912.34
2023-02-14T00:54:54.649Z,100914.97
2023-02-14T00:55:01.781Z,100915.84
2023-02-14T00:55:09.855Z,100915.81
2023-02-14T00:55:19.989Z,100914.06
2023-02-14T00:55:39.437Z,100912.34
2023-02-14T00:55:46.751Z,100911.44
2023-02-14T00:55:55.142Z,100914.06
2023-02-14T00:56:02.417Z,100909.72
2023-02-14T00:56:14.239Z,100910.59
2023-02-14T00:56:23.193Z,100907.97
2023-02-14T00:56:30.333Z,100916.72
2023-02-14T00:56:41.752Z,100906.22
2023-02-14T00:57:01.529Z,100916.72
2023-02-14T00:57:12.459Z,100908.84
2023-02-14T00:57:19.542Z,100914.97
2023-02-14T00:57:26.863Z,100909.72
2023-02-14T00:57:33.966Z,100913.22
2023-02-14T00:57:44.552Z,100914.13
2023-02-14T00:57:51.643Z,100914.13
2023-02-14T00:58:10.646Z,100907.09
2023-02-14T00:58:19.070Z,100910.59
2023-02-14T00:58:27.863Z,100907.94
2023-02-14T00:58:36.183Z,100905.31
2023-02-14T00:58:43.628Z,100907.06
2023-02-14T00:58:50.704Z,100905.31
2023-02-14T00:59:10.232Z,100904.44
2023-02-14T00:59:17.350Z,100906.19
2023-02-14T00:59:24.394Z,100907.06
2023-02-14T00:59:31.436Z,100909.72
2023-02-14T00:59:39.863Z,100910.59
2023-02-14T00:59:58.874Z,100907.06
2023-02-14T01:00:10.631Z,100910.56
2023-02-14T01:00:17.881Z,100907.09
2023-02-14T01:00:25.010Z,100911.44
2023-02-14T01:00:34.749Z,100906.19
2023-02-14T01:00:41.961Z,100910.56
2023-02-14T01:01:01.419Z,100914.06
2023-02-14T01:01:09.480Z,100905.31
2023-02-14T01:01:17.883Z,100912.31
2023-02-14T01:01:25.049Z,100908.81
2023-02-14T01:01:32.164Z,100908.81
2023-02-14T01:01:46.391Z,100912.34
2023-02-14T01:01:53.428Z,100910.56
2023-02-14T01:02:00.515Z,100909.72
2023-02-14T01:02:21.405Z,100910.59
2023-02-14T01:02:28.582Z,100911.50
2023-02-14T01:02:38.871Z,100916.72
2023-02-14T01:02:47.374Z,100911.50
2023-02-14T01:02:54.613Z,100907.09
2023-02-14T01:03:01.789Z,100913.22
2023-02-14T01:03:10.359Z,100906.25
2023-02-14T01:03:31.101Z,100908.88
2023-02-14T01:03:43.583Z,100913.22
2023-02-14T01:03:51.216Z,100912.34
2023-02-14T01:04:00.167Z,100909.72
2023-02-14T01:04:07.898Z,100913.25
2023-02-14T01:04:14.983Z,100911.50
2023-02-14T01:04:22.033Z,100909.72
2023-02-14T01:04:41.078Z,100905.38
2023-02-14T01:04:48.179Z,100913.25
2023-02-14T01:04:55.241Z,100910.63
2023-02-14T01:05:02.332Z,100911.50
2023-02-14T01:05:21.325Z,100914.13
2023-02-14T01:05:29.420Z,100914.97
2023-02-14T01:05:37.218Z,100908.84
2023-02-14T01:05:44.420Z,100910.59
2023-02-14T01:05:51.457Z,100904.47
2023-02-14T01:06:10.626Z,100907.09
2023-02-14T01:06:17.661Z,100909.72
2023-02-14T01:06:24.796Z,100910.59
2023-02-14T01:06:37.898Z,100908.81
2023-02-14T01:06:45.109Z,100901.84
2023-02-14T01:06:53.550Z,100907.06
2023-02-14T01:07:02.500Z,100917.59
2023-02-14T01:07:22.834Z,100908.84
2023-02-14T01:07:32.539Z,100909.72
2023-02-14T01:07:39.549Z,100906.25
2023-02-14T01:07:46.606Z,100910.59
2023-02-14T01:07:53.678Z,100904.50
2023-02-14T01:08:07.869Z,100908.88
2023-02-14T01:08:15.206Z,100902.72
2023-02-14T01:08:22.241Z,100906.22
2023-02-14T01:08:31.422Z,100906.22
2023-02-14T01:08:50.485Z,100902.69
2023-02-14T01:09:00.777Z,100906.19
2023-02-14T01:09:07.931Z,100907.06
2023-02-14T01:09:16.113Z,100903.56
2023-02-14T01:09:23.175Z,100899.19
2023-02-14T01:09:30.321Z,100901.84
2023-02-14T01:09:49.325Z,100904.47
2023-02-14T01:09:57.764Z,100900.06
2023-02-14T01:10:05.188Z,100899.19
2023-02-14T01:10:12.275Z,100901.84
2023-02-14T01:10:36.101Z,100895.72
2023-02-14T01:10:44.620Z,100901.84
2023-02-14T01:10:51.775Z,100902.75
2023-02-14T01:11:06.742Z,100895.75
2023-02-14T01:11:14.960Z,100896.63
2023-02-14T01:11:28.169Z,100902.75
2023-02-14T01:11:36.363Z,100900.13
2023-02-14T01:11:43.485Z,100899.28
2023-02-14T01:11:53.752Z,100900.13
2023-02-14T01:12:00.827Z,100904.50
2023-02-14T01:12:07.937Z,100903.63
2023-02-14T01:12:14.979Z,100897.53
2023-02-14T01:12:26.840Z,100894.00
2023-02-14T01:12:33.884Z,100894.91
2023-02-14T01:12:41.400Z,100891.41
2023-02-14T01:12:55.473Z,100897.50
2023-02-14T01:13:02.690Z,100892.25
2023-02-14T01:13:10.061Z,100902.75
2023-02-14T01:13:24.846Z,100899.28
2023-02-14T01:13:31.916Z,100894.00
2023-02-14T01:13:52.970Z,100901.91
2023-02-14T01:14:00.155Z,100901.00
2023-02-14T01:14:07.229Z,100901.88
2023-02-14T01:14:14.317Z,100899.28
2023-02-14T01:14:25.830Z,100898.41
2023-02-14T01:14:32.845Z,100901.88
2023-02-14T01:14:39.929Z,100903.66
2023-02-14T01:14:59.766Z,100899.28
2023-02-14T01:15:07.178Z,100900.13
2023-02-14T01:15:15.311Z,100898.41
2023-02-14T01:15:24.556Z,100901.03
2023-02-14T01:15:32.300Z,100901.03
2023-02-14T01:15:40.212Z,100898.38
2023-02-14T01:16:05.214Z,100893.19
2023-02-14T01:16:13.659Z,100899.31
2023-02-14T01:16:21.546Z,100898.44
2023-02-14T01:16:29.170Z,100896.69
2023-02-14T01:16:37.864Z,100895.78
2023-02-14T01:16:45.267Z,100893.16
2023-02-14T01:16:52.405Z,100899.25
2023-02-14T01:17:06.479Z,100900.97
2023-02-14T01:17:13.560Z,100901.84
2023-02-14T01:17:20.601Z,100889.59
2023-02-14T01:17:47.121Z,100900.09
2023-02-14T01:17:54.239Z,100888.72
2023-02-14T01:18:01.606Z,100890.50
2023-02-14T01:18:08.874Z,100894.88
2023-02-14T01:18:17.577Z,100891.38
2023-02-14T01:18:24.685Z,100889.63
2023-02-14T01:18:31.730Z,100893.09
2023-02-14T01:18:50.920Z,100893.97
2023-02-14T01:18:59.338Z,100899.25
2023-02-14T01:19:09.792Z,100894.84
2023-02-14T01:19:16.954Z,100895.75
2023-02-14T01:19:24.035Z,100888.75
2023-02-14T01:19:31.097Z,100894.88
2023-02-14T01:19:48.064Z,100894.00
2023-02-14T01:19:55.244Z,100898.38
2023-02-14T01:20:04.516Z,100899.25
2023-02-14T01:20:11.821Z,100894.00
2023-02-14T01:20:26.553Z,100893.13
2023-02-14T01:20:33.797Z,100896.63
2023-02-14T01:20:41.088Z,100894.88
2023-02-14T01:20:55.062Z,100897.50
2023-02-14T01:21:16.526Z,100901.00
2023-02-14T01:21:25.722Z,100895.75
2023-02-14T01:21:33.695Z,100902.75
2023-02-14T01:21:41.729Z,100897.50
2023-02-14T01:21:48.764Z,100899.25
2023-02-14T01:21:55.915Z,100894.88
2023-02-14T01:22:03.073Z,100901.88
2023-02-14T01:22:10.223Z,100899.25
2023-02-14T01:22:35.168Z,100895.75
2023-02-14T01:22:42.775Z,100903.63
2023-02-14T01:22:51.220Z,100899.25
2023-02-14T01:23:00.576Z,100902.75
2023-02-14T01:23:07.609Z,100897.50
2023-02-14T01:23:14.757Z,100896.63
2023-02-14T01:23:21.905Z,100895.75
2023-02-14T01:23:36.128Z,100899.28
2023-02-14T01:23:43.656Z,100899.28
2023-02-14T01:23:52.152Z,100895.78
2023-02-14T01:24:00.486Z,100899.28
2023-02-14T01:24:25.254Z,100896.66
2023-02-14T01:24:32.457Z,100895.75
2023-02-14T01:24:40.756Z,100895.75
2023-02-14T01:24:47.865Z,100901.88
2023-02-14T01:24:55.006Z,100899.28
2023-02-14T01:25:02.113Z,100903.63
2023-02-14T01:25:09.988Z,100894.88
2023-02-14T01:25:24.531Z,100894.00
2023-02-14T01:25:32.136Z,100901.03
2023-02-14T01:25:40.073Z,100892.28
2023-02-14T01:25:55.828Z,100892.25
2023-02-14T01:26:04.290Z,100898.41
2023-02-14T01:26:11.787Z,100892.31
2023-02-14T01:26:31.235Z,100899.28
2023-02-14T01:26:41.285Z,100891.38
2023-02-14T01:26:50.561Z,100887.91
2023-02-14T01:26:57.650Z,100892.28
2023-02-14T01:27:05.760Z,100897.56
2023-02-14T01:27:12.840Z,100892.31
2023-02-14T01:27:19.910Z,100887.03
2023-02-14T01:27:39.070Z,100892.31
2023-02-14T01:27:46.207Z,100894.06
2023-02-14T01:27:53.918Z,100885.38
2023-02-14T01:28:01.001Z,100889.72
2023-02-14T01:28:20.470Z,100892.31
2023-02-14T01:28:27.526Z,100888.81
2023-02-14T01:28:35.220Z,100891.44
2023-02-14T01:28:43.962Z,100887.91
2023-02-14T01:28:51.041Z,100889.69
2023-02-14T01:29:09.993Z,100886.19
2023-02-14T01:29:17.075Z,100883.56
2023-02-14T01:29:24.163Z,100885.28
2023-02-14T01:29:32.663Z,100884.41
2023-02-14T01:29:40.749Z,100889.66
2023-02-14T01:29:59.818Z,100891.44
2023-02-14T01:30:07.673Z,100880.94
2023-02-14T01:30:15.208Z,100885.31
2023-02-14T01:30:22.411Z,100887.06
2023-02-14T01:30:41.526Z,100888.81
2023-02-14T01:30:51.977Z,100890.53
2023-02-14T01:31:05.424Z,100892.31
2023-02-14T01:31:14.525Z,100888.81
2023-02-14T01:31:24.426Z,100886.22
2023-02-14T01:31:32.582Z,100886.19
2023-02-14T01:31:39.851Z,100882.69
2023-02-14T01:31:49.106Z,100888.81
2023-02-14T01:31:57.748Z,100878.31
2023-02-14T01:32:05.556Z,100886.19
2023-02-14T01:32:12.722Z,100889.72
2023-02-14T01:32:19.845Z,100886.19
2023-02-14T01:32:33.939Z,100881.81
2023-02-14T01:32:40.986Z,100878.31
2023-02-14T01:32:50.581Z,100882.69
2023-02-14T01:33:09.706Z,100882.69
2023-02-14T01:33:16.812Z,100882.69
2023-02-14T01:33:24.037Z,100885.31
2023-02-14T01:33:31.141Z,100884.44
2023-02-14T01:33:50.835Z,100884.44
2023-02-14T01:33:58.583Z,100881.81
2023-02-14T01:34:05.702Z,100884.44
2023-02-14T01:34:13.858Z,100887.94
2023-02-14T01:34:20.905Z,100883.56
2023-02-14T01:34:40.032Z,100881.81
2023-02-14T01:34:48.154Z,100884.47
2023-02-14T01:34:55.263Z,100880.94
2023-02-14T01:35:03.261Z,100882.69
2023-02-14T01:35:10.817Z,100880.94
2023-02-14T01:35:29.907Z,100880.94
2023-02-14T01:35:38.788Z,100886.19
2023-02-14T01:35:46.042Z,100887.06
2023-02-14T01:35:54.385Z,100880.06
2023-02-14T01:36:02.449Z,100884.44
2023-02-14T01:36:15.142Z,100888.81
2023-02-14T01:36:23.388Z,100886.19
2023-02-14T01:36:31.634Z,100887.94
2023-02-14T01:36:53.550Z,100883.56
2023-02-14T01:37:00.602Z,100882.69
2023-02-14T01:37:07.672Z,100882.69
2023-02-14T01:37:15.616Z,100880.94
2023-02-14T01:37:22.709Z,100888.81
2023-02-14T01:37:30.946Z,100884.47
2023-02-14T01:37:45.066Z,100881.84
2023-02-14T01:37:56.920Z,100877.47
2023-02-14T01:38:04.347Z,100887.06
2023-02-14T01:38:11.366Z,100880.97
2023-02-14T01:38:29.665Z,100877.47
2023-02-14T01:38:39.464Z,100875.69
2023-02-14T01:38:46.597Z,100885.28
2023-02-14T01:38:55.233Z,100880.94
2023-02-14T01:39:04.769Z,100876.56
2023-02-14T01:39:13.704Z,100880.03
2023-02-14T01:39:20.822Z,100882.69
2023-02-14T01:39:35.118Z,100881.84
2023-02-14T01:39:42.544Z,100883.56
2023-02-14T01:39:50.666Z,100881.84
2023-02-14T01:40:11.431Z,100883.56
2023-02-14T01:40:18.592Z,100875.69
2023-02-14T01:40:25.817Z,100876.53
2023-02-14T01:40:33.115Z,100884.44
2023-02-14T01:40:42.646Z,100885.34
2023-02-14T01:41:01.863Z,100880.13
2023-02-14T01:41:11.293Z,100879.22
2023-02-14T01:41:19.409Z,100883.63
2023-02-14T01:41:27.261Z,100879.25
2023-02-14T01:41:35.856Z,100882.72
2023-02-14T01:41:44.496Z,100881.00
2023-02-14T01:41:53.988Z,100879.25
2023-02-14T01:42:03.873Z,100887.97
2023-02-14T01:42:14.069Z,100887.09
2023-02-14T01:42:21.157Z,100887.09
2023-02-14T01:42:37.510Z,100887.13
2023-02-14T01:42:46.938Z,100879.25
2023-02-14T01:42:54.043Z,100884.47
2023-02-14T01:43:03.657Z,100888.88
2023-02-14T01:43:13.585Z,100885.38
2023-02-14T01:43:20.681Z,100885.38
2023-02-14T01:43:50.453Z,100885.34
2023-02-14T01:44:01.232Z,100890.59
2023-02-14T01:44:28.611Z,100891.44
2023-02-14T01:45:06.472Z,100892.34
2023-02-14T01:45:17.559Z,100885.34
2023-02-14T01:45:26.767Z,100889.72
2023-02-14T01:45:34.073Z,100884.47
2023-02-14T01:45:41.608Z,100889.72
2023-02-14T01:45:48.790Z,100882.69
2023-02-14T01:45:55.904Z,100880.09
2023-02-14T01:46:03.117Z,100877.47
2023-02-14T01:46:10.990Z,100879.25
2023-02-14T01:46:19.553Z,100881.84
2023-02-14T01:46:27.950Z,100881.84
2023-02-14T01:46:36.208Z,100883.59
2023-02-14T01:46:46.702Z,100883.63
2023-02-14T01:46:54.036Z,100881.84
2023-02-14T01:47:03.063Z,100880.94
2023-02-14T01:47:11.048Z,100878.31
2023-02-14T01:47:18.344Z,100878.31
2023-02-14T01:47:26.902Z,100879.22
2023-02-14T01:47:37.145Z,100879.22
2023-02-14T01:47:45.813Z,100882.69
2023-02-14T01:47:54.744Z,100880.09
2023-02-14T01:48:01.860Z,100879.19
2023-02-14T01:48:09.325Z,100876.53
2023-02-14T01:48:17.324Z,100880.03
2023-02-14T01:48:25.944Z,100879.16
2023-02-14T01:48:33.221Z,100874.81
2023-02-14T01:48:40.286Z,100873.94
2023-02-14T01:48:47.590Z,100875.69
2023-02-14T01:49:03.152Z,100879.19
2023-02-14T01:49:15.698Z,100874.81
2023-02-14T01:49:29.866Z,100873.06
2023-02-14T01:49:38.736Z,100879.16
2023-02-14T01:49:52.170Z,100876.53
2023-02-14T01:50:01.623Z,100875.69
2023-02-14T01:50:11.033Z,100879.16
2023-02-14T01:50:22.620Z,100876.53
2023-02-14T01:50:32.900Z,100873.06
2023-02-14T01:50:41.578Z,100881.81
2023-02-14T01:50:50.190Z,100870.44
2023-02-14T01:50:57.628Z,100873.94
2023-02-14T01:51:04.931Z,100873.91
2023-02-14T01:51:12.618Z,100874.78
2023-02-14T01:51:20.213Z,100876.56
2023-02-14T01:51:28.562Z,100880.06
2023-02-14T01:51:54.970Z,100876.59
2023-02-14T01:52:05.464Z,100870.44
2023-02-14T01:52:14.390Z,100873.09
2023-02-14T01:52:26.963Z,100872.22
2023-02-14T01:52:35.596Z,100870.44
2023-02-14T01:52:44.156Z,100866.97
2023-02-14T01:52:54.370Z,100867.84
2023-02-14T01:53:02.793Z,100866.97
2023-02-14T01:53:12.373Z,100869.63
2023-02-14T01:53:21.777Z,100867.88
2023-02-14T01:53:29.423Z,100871.34
2023-02-14T01:53:37.409Z,100866.97
2023-02-14T01:53:44.998Z,100873.13
2023-02-14T01:53:52.552Z,100874.00
2023-02-14T01:54:00.082Z,100866.13
2023-02-14T01:54:08.945Z,100865.25
2023-02-14T01:54:25.143Z,100870.47
2023-02-14T01:54:33.420Z,100871.34
2023-02-14T01:54:41.943Z,100869.59
2023-02-14T01:54:53.385Z,100866.97